Accueil
METAR-TAF:

METAR-TAF

Aéroports :

Port-Vila, Éfaté, Vanuatu

Aéroport international Bauerfield

latitude: 17-42S, longitude: 168-18E, altitude: 20 m

Observation

Le bulletin a été fait il y a 41 minutes, à 09:00 UTC
Vent 6 kt de est/sud-est
Température 25°C
Humidité 89%
Pression 1007 hPa
Visibilité 10 km ou plus
Nuages épars à une hauteur de 2000 ft

METAR: NVVV 240900Z 11006KT 9999 SCT020 25/23 Q1007 RMK NIL

Heure: 20:41 (09:41 UTC)

Prévision

Le bulletin a été fait il y a 5 heures et 11 minutes, à 04:30 UTC
Prévision valable du 24 à 06 UTC au 25 à 06 UTC
Vent 10 kt de est
Visibilité: 9000 m
Nuages épars à une hauteur de 2000 ft
Nuages fragmentés à une hauteur de 1800 ft
faibles averses de pluie

TAF: NVVV 240430Z 2406/2506 10010KT 9999 SCT020 INTER 2406/2412 9000 -SHRA BKN018

Observations et prévisions météorologiques de plus de 4000 aéroports (messages METAR et TAF).

Les stations disponibles sont représentées par des disques jaunes et rouges sur la carte.

Passer la souris dessus pour voir le nom de la station.

Cliquer dessus pour voir les observations et prévisions météorologiques.

Pour changer de carte: cliquez sur les boutons verts avec une croix noire pour zoomer, sur le bouton vert avec un tiret pour effectuer un zoom arrière, ou sur les flèches vertes pour les cartes adjacentes.


METAR-TAF: